Sparta, NC (28675)

10:16 AM EDT on August 29, 2015 (GMT -0400)
stone ridge | | Change Station
CLOSE
Current Station
Personal Weather Station
Location: Sparta, NC
Elevation: 3009 ft
Nearby Weather Stations

Elev 3009 ft 36.50 °N, 81.14 °W | Updated 3 seconds ago

Overcast
Overcast
69.3 °F
Feels Like 69.3 °F
N
0.0
Wind Variable Wind from NE
Gusts 0.0 mph

Today
High -- | Low -- °F
--% Chance of Precip.
Yesterday
High -- | Low -- °F
Precip. -- in
6:53 AM 7:57 PM
Full, 100% visible
Pressure 30.33 in
Visibility 10.0 miles
Clouds Overcast 7000 ft
Dew Point 62 °F
Humidity 77%
Rainfall 0.00 in
Snow Depth Not available.
UV 1 out of 12
Pollen 8.40 out of 12
Air Quality Not available.
Flu Activity Not available.
METAR KGEV 291355Z AUTO 00000KT 10SM OVC070 17/16 A3033 RMK AO2 T01690156
Pressure 30.33 in
Visibility 10.0 miles
Clouds Overcast 7000 ft
Dew Point 62 °F
Humidity 77%
Rainfall 0.00 in
Snow Depth Not available.
UV 1 out of 12
Pollen 8.40 out of 12
Air Quality Not available.
Flu Activity Not available.
METAR KGEV 291355Z AUTO 00000KT 10SM OVC070 17/16 A3033 RMK AO2 T01690156

10-Day Weather Forecast

×

Almanac

Astronomy

Aug. 29, 2015 Rise Set
Actual Time
Civil Twilight
Nautical Twilight
Astronomical Twilight
Moon
Length of Visible Light
Length of Day
Tomorrow will be .
, % of the Moon is Illuminated

Today's Extremes

State Highs State Lows

Community

WunderPhotos

Upload Photos

1,850,692 photos uploaded!

WunderBlogs® & News

Nearby

Air Quality

  Air Quality AQ Index Pollutant
Not available.

Snow Depth

Station Depth Elevation

Earthquake Activity

City Distance Mag. Time & Date
Minimum magnitude displayed is 2.5.

Coastal Water Temperatures

Place Temperature

Stations

Nearby Weather Stations

Station Location Temp. Windchill Dew Point Humidity Wind Precip. Elev Updated Type